Time;durP1;ratioP1;P1;durP2;ratioP2;P2;SDS_P1;SDS_P2;PMS_P1;PMS_P2;Temp;Humidity;BMP_temperature;BMP_pressure;BME280_temperature;BME280_humidity;BME280_pressure;Samples;Min_cycle;Max_cycle;Signal;HPM_P1;HPM_P2
2023/05/24 00:00:33;;;;;;;16.27;5.50;;;10.60;99.90;;;;;;5114733;28;20040;-69
2023/05/24 00:02:59;;;;;;;19.50;5.20;;;10.50;99.90;;;;;;5080103;28;20073;-69
2023/05/24 00:05:25;;;;;;;21.77;4.50;;;10.40;99.90;;;;;;5114533;28;20047;-69
2023/05/24 00:07:51;;;;;;;21.90;5.60;;;10.40;99.90;;;;;;5079477;28;20480;-69
2023/05/24 00:10:17;;;;;;;19.93;5.20;;;10.40;99.90;;;;;;5115038;28;20285;-69
2023/05/24 00:12:42;;;;;;;20.47;5.27;;;10.40;99.90;;;;;;5114547;28;20168;-69
2023/05/24 00:15:08;;;;;;;18.47;5.23;;;10.50;99.90;;;;;;5114393;28;20062;-69
2023/05/24 00:17:40;;;;;;;22.90;6.53;;;10.40;99.90;;;;;;5113856;28;20048;-70
2023/05/24 00:20:10;;;;;;;19.20;4.70;;;10.50;99.90;;;;;;5114662;28;20278;-70
2023/05/24 00:22:37;;;;;;;23.13;4.87;;;10.50;99.90;;;;;;5114136;28;20313;-69
2023/05/24 00:25:04;;;;;;;25.73;5.83;;;10.50;99.90;;;;;;5114798;28;20278;-70
2023/05/24 00:27:30;;;;;;;21.13;5.40;;;10.50;99.90;;;;;;5114364;28;20286;-70
2023/05/24 00:29:56;;;;;;;16.90;5.07;;;10.40;99.90;;;;;;5114493;28;20278;-69
2023/05/24 00:32:22;;;;;;;23.63;5.93;;;10.50;99.90;;;;;;5096217;28;20323;-69
2023/05/24 00:34:47;;;;;;;21.30;5.53;;;10.50;99.90;;;;;;5113959;28;20530;-69
2023/05/24 00:37:13;;;;;;;17.17;5.10;;;10.50;99.90;;;;;;5114128;28;20156;-69
2023/05/24 00:39:40;;;;;;;24.27;5.40;;;10.50;99.90;;;;;;5114119;28;20451;-69
2023/05/24 00:42:06;;;;;;;25.17;5.60;;;10.50;99.90;;;;;;5114454;28;20278;-69
2023/05/24 00:44:32;;;;;;;21.07;5.13;;;10.50;99.90;;;;;;5095703;28;20281;-69
2023/05/24 00:46:58;;;;;;;19.33;5.47;;;10.50;99.90;;;;;;5095938;28;20364;-69
2023/05/24 00:49:25;;;;;;;18.90;5.43;;;10.60;99.90;;;;;;5113985;28;20059;-69
2023/05/24 00:51:52;;;;;;;22.60;5.57;;;10.60;99.90;;;;;;5113545;28;20338;-69
2023/05/24 00:54:18;;;;;;;16.97;4.40;;;10.60;99.90;;;;;;5114012;28;20354;-69
2023/05/24 00:56:43;;;;;;;20.07;4.50;;;10.60;99.90;;;;;;5113760;28;20282;-69
2023/05/24 00:59:09;;;;;;;24.67;5.30;;;10.60;99.90;;;;;;5095847;28;20245;-69
2023/05/24 01:01:36;;;;;;;25.17;5.60;;;10.60;99.90;;;;;;5113417;28;20112;-69
2023/05/24 01:04:02;;;;;;;21.97;5.63;;;10.60;99.90;;;;;;5095708;28;20049;-69
2023/05/24 01:06:28;;;;;;;29.17;5.70;;;10.60;99.90;;;;;;5113650;28;20812;-69
2023/05/24 01:09:00;;;;;;;20.23;5.60;;;10.60;99.90;;;;;;5113662;28;20277;-69
2023/05/24 01:11:50;;;;;;;17.40;5.17;;;10.60;99.90;;;;;;5095749;28;20321;-69
2023/05/24 01:14:34;;;;;;;26.40;5.73;;;10.60;99.90;;;;;;5113543;28;20293;-69
2023/05/24 01:17:13;;;;;;;22.10;6.03;;;10.60;99.90;;;;;;5095376;28;20293;-69
2023/05/24 01:19:42;;;;;;;23.00;4.93;;;10.60;99.90;;;;;;5113482;28;20278;-69
2023/05/24 01:22:16;;;;;;;21.97;4.97;;;10.60;99.90;;;;;;5113789;28;20285;-70
2023/05/24 01:24:57;;;;;;;23.13;5.65;;;10.60;99.90;;;;;;5113307;28;20276;-69
2023/05/24 01:27:23;;;;;;;16.87;5.10;;;10.70;99.90;;;;;;5113520;28;20138;-69
2023/05/24 01:29:52;;;;;;;19.03;4.87;;;10.70;99.90;;;;;;5112477;28;20277;-70
2023/05/24 01:32:20;;;;;;;17.63;6.03;;;10.70;99.90;;;;;;5112878;28;20284;-70
2023/05/24 01:34:46;;;;;;;23.43;5.27;;;10.60;99.90;;;;;;5094825;28;20329;-70
2023/05/24 01:37:12;;;;;;;19.13;5.03;;;10.60;99.90;;;;;;5113248;28;20281;-69
2023/05/24 01:39:39;;;;;;;23.33;5.50;;;10.60;99.90;;;;;;5078026;28;20776;-69
2023/05/24 01:42:25;;;;;;;22.27;5.20;;;10.60;99.90;;;;;;5113366;28;20048;-69
2023/05/24 01:45:32;;;;;;;16.10;4.30;;;10.50;99.90;;;;;;5095182;28;20292;-69
2023/05/24 01:48:17;;;;;;;19.73;4.70;;;10.50;99.90;;;;;;5063852;28;20368;-69
2023/05/24 01:50:51;;;;;;;18.92;4.70;;;10.50;99.90;;;;;;5095188;28;20289;-69
2023/05/24 01:53:19;;;;;;;19.63;4.57;;;10.50;99.90;;;;;;5113166;28;20526;-69
2023/05/24 01:55:48;;;;;;;20.50;4.23;;;10.60;99.90;;;;;;5112751;28;20305;-69
2023/05/24 01:58:16;;;;;;;21.87;5.93;;;10.60;99.90;;;;;;5113090;28;20681;-69
2023/05/24 02:00:43;;;;;;;16.50;4.20;;;10.60;99.90;;;;;;5112668;28;20374;-70
2023/05/24 02:03:09;;;;;;;18.30;4.57;;;10.70;99.90;;;;;;5095129;28;20788;-69
2023/05/24 02:05:36;;;;;;;20.60;5.73;;;10.60;99.90;;;;;;5113121;28;20273;-72
2023/05/24 02:08:02;;;;;;;18.17;4.60;;;10.60;99.90;;;;;;5094861;28;20716;-69
2023/05/24 02:10:27;;;;;;;18.33;4.10;;;10.60;99.90;;;;;;5078145;28;20317;-69
2023/05/24 02:12:53;;;;;;;16.63;4.70;;;10.60;99.90;;;;;;5112677;28;20509;-70
2023/05/24 02:15:19;;;;;;;22.03;5.17;;;10.50;99.90;;;;;;5063140;28;20165;-69
2023/05/24 02:17:45;;;;;;;23.10;5.40;;;10.40;99.90;;;;;;5072205;28;20041;-70
2023/05/24 02:20:12;;;;;;;18.77;4.10;;;10.40;99.90;;;;;;5072379;28;20282;-69
2023/05/24 02:22:38;;;;;;;20.67;5.63;;;10.40;99.90;;;;;;5072093;28;20057;-72
2023/05/24 02:25:04;;;;;;;15.77;4.93;;;10.40;99.90;;;;;;5072455;28;20313;-69
2023/05/24 02:27:30;;;;;;;18.53;4.60;;;10.40;99.90;;;;;;5071029;28;20131;-69
2023/05/24 02:29:56;;;;;;;22.63;5.00;;;10.40;99.90;;;;;;5071825;28;20310;-69
2023/05/24 02:32:22;;;;;;;17.97;5.10;;;10.40;99.90;;;;;;5070768;28;20109;-69
2023/05/24 02:34:47;;;;;;;24.17;5.00;;;10.40;99.90;;;;;;5070743;28;20299;-70
2023/05/24 02:37:13;;;;;;;22.80;4.57;;;10.30;99.90;;;;;;5072273;28;20097;-69
2023/05/24 02:39:40;;;;;;;16.90;3.77;;;10.30;99.90;;;;;;5073062;28;20519;-72
2023/05/24 02:42:07;;;;;;;19.30;4.67;;;10.30;99.90;;;;;;5058080;28;20085;-69
2023/05/24 02:44:34;;;;;;;17.73;4.40;;;10.30;99.90;;;;;;5075870;28;20366;-70
2023/05/24 02:47:00;;;;;;;15.23;4.37;;;10.40;99.90;;;;;;5075595;28;21319;-70
2023/05/24 02:49:25;;;;;;;17.43;4.10;;;10.40;99.90;;;;;;5075741;28;20318;-70
2023/05/24 02:51:51;;;;;;;22.93;4.87;;;10.30;99.90;;;;;;5075409;28;20127;-70
2023/05/24 02:54:17;;;;;;;23.07;4.47;;;10.30;99.90;;;;;;5074358;28;20374;-70
2023/05/24 02:56:43;;;;;;;15.50;4.00;;;10.30;99.90;;;;;;5074896;28;20040;-70
2023/05/24 02:59:10;;;;;;;20.03;4.77;;;10.30;99.90;;;;;;5075684;28;20056;-70
2023/05/24 03:01:35;;;;;;;26.10;4.73;;;10.40;99.90;;;;;;5075797;28;20045;-70
2023/05/24 03:04:01;;;;;;;18.10;4.60;;;10.40;99.90;;;;;;5075279;28;21107;-70
2023/05/24 03:06:27;;;;;;;21.77;4.60;;;10.40;99.90;;;;;;5074284;28;20570;-69
2023/05/24 03:08:52;;;;;;;23.47;4.70;;;10.40;99.90;;;;;;5074451;28;20135;-70
2023/05/24 03:11:20;;;;;;;23.03;4.77;;;10.30;99.90;;;;;;5075213;28;20049;-69
2023/05/24 03:13:47;;;;;;;18.80;4.20;;;10.30;99.90;;;;;;5057383;28;20044;-70
2023/05/24 03:16:13;;;;;;;21.93;4.60;;;10.30;99.90;;;;;;5113414;28;20325;-69
2023/05/24 03:18:39;;;;;;;18.20;4.00;;;10.30;99.90;;;;;;5097846;28;20332;-70
2023/05/24 03:21:06;;;;;;;18.40;4.97;;;10.30;99.90;;;;;;5115492;28;20051;-70
2023/05/24 03:23:32;;;;;;;18.57;4.30;;;10.20;99.90;;;;;;5097399;28;20777;-69
2023/05/24 03:25:57;;;;;;;14.80;4.13;;;10.20;99.90;;;;;;5080559;28;20319;-69
2023/05/24 03:28:23;;;;;;;25.53;5.07;;;10.20;99.90;;;;;;5115650;28;20052;-69
2023/05/24 03:30:49;;;;;;;20.27;5.10;;;10.20;99.90;;;;;;5115625;28;20070;-70
2023/05/24 03:33:15;;;;;;;21.53;4.53;;;10.20;99.90;;;;;;5115435;28;20051;-70
2023/05/24 03:35:40;;;;;;;16.63;4.17;;;10.20;99.90;;;;;;5115404;28;20040;-69
2023/05/24 03:38:06;;;;;;;18.17;4.37;;;10.20;99.90;;;;;;5115187;28;20104;-70
2023/05/24 03:40:33;;;;;;;18.73;4.50;;;10.10;99.90;;;;;;5097268;28;20054;-69
2023/05/24 03:42:59;;;;;;;21.47;4.23;;;10.20;99.90;;;;;;5115241;28;20052;-70
2023/05/24 03:45:25;;;;;;;16.60;4.17;;;10.20;99.90;;;;;;5115189;28;20284;-69
2023/05/24 03:47:50;;;;;;;19.57;4.83;;;10.20;99.90;;;;;;5115005;28;20277;-70
2023/05/24 03:50:16;;;;;;;24.87;5.80;;;10.20;99.90;;;;;;5115386;28;20085;-69
2023/05/24 03:52:42;;;;;;;19.73;4.13;;;10.20;99.90;;;;;;5114254;28;20040;-69
2023/05/24 03:55:08;;;;;;;20.83;5.17;;;10.20;99.90;;;;;;5112674;28;20050;-69
2023/05/24 03:57:33;;;;;;;15.73;4.63;;;10.20;99.90;;;;;;5114934;28;20402;-70
2023/05/24 03:59:59;;;;;;;20.50;4.50;;;10.20;99.90;;;;;;5114867;28;20079;-70
2023/05/24 04:02:25;;;;;;;18.40;4.80;;;10.20;99.90;;;;;;5096906;28;20044;-70
2023/05/24 04:04:51;;;;;;;18.10;4.23;;;10.20;99.90;;;;;;5114656;28;20039;-70
2023/05/24 04:07:18;;;;;;;18.40;4.67;;;10.20;99.90;;;;;;5114810;28;20449;-70
2023/05/24 04:09:44;;;;;;;20.50;4.07;;;10.30;99.90;;;;;;5096445;28;20685;-70
2023/05/24 04:12:10;;;;;;;17.80;4.43;;;10.30;99.90;;;;;;5096170;28;20284;-69
2023/05/24 04:14:36;;;;;;;16.27;3.77;;;10.30;99.90;;;;;;5096467;28;20098;-70
2023/05/24 04:17:04;;;;;;;21.83;5.73;;;10.30;99.90;;;;;;5114424;28;20325;-70
2023/05/24 04:19:30;;;;;;;21.03;5.13;;;10.30;99.90;;;;;;5096651;28;20130;-69
2023/05/24 04:21:56;;;;;;;18.73;4.67;;;10.30;99.90;;;;;;5079390;28;20388;-70
2023/05/24 04:24:22;;;;;;;17.33;4.77;;;10.30;99.90;;;;;;5096206;28;20044;-69
2023/05/24 04:26:47;;;;;;;20.37;4.90;;;10.40;99.90;;;;;;5096648;28;20281;-70
2023/05/24 04:29:13;;;;;;;18.40;4.00;;;10.40;99.90;;;;;;5096145;28;20418;-70
2023/05/24 04:31:43;;;;;;;18.37;5.13;;;10.40;99.90;;;;;;5079402;28;20043;-70
2023/05/24 04:34:13;;;;;;;15.83;3.87;;;10.50;99.90;;;;;;5079271;28;20476;-70
2023/05/24 04:36:39;;;;;;;17.57;4.33;;;10.50;99.90;;;;;;5114297;28;20383;-70
2023/05/24 04:39:05;;;;;;;21.03;3.83;;;10.60;99.90;;;;;;5113723;28;20281;-70
2023/05/24 04:41:31;;;;;;;19.83;4.33;;;10.60;99.90;;;;;;5114428;28;20645;-70
2023/05/24 04:43:58;;;;;;;20.60;3.83;;;10.70;99.90;;;;;;5095764;28;20193;-70
2023/05/24 04:46:25;;;;;;;17.73;4.83;;;10.80;99.90;;;;;;5114182;28;20360;-69
2023/05/24 04:48:52;;;;;;;16.07;3.70;;;10.90;99.90;;;;;;5096090;28;20289;-70
2023/05/24 04:51:17;;;;;;;16.67;4.13;;;11.00;99.90;;;;;;5113771;28;20277;-70
2023/05/24 04:53:43;;;;;;;19.77;5.30;;;11.10;99.90;;;;;;5095531;28;20369;-70
2023/05/24 04:56:09;;;;;;;18.47;3.87;;;11.20;99.90;;;;;;5113749;28;20052;-70
2023/05/24 04:58:34;;;;;;;19.60;4.17;;;11.20;99.90;;;;;;5095602;28;20047;-70
2023/05/24 05:01:01;;;;;;;19.57;4.13;;;11.20;99.90;;;;;;5095722;28;20055;-69
2023/05/24 05:03:27;;;;;;;19.87;4.73;;;11.20;99.90;;;;;;5113685;28;20406;-70
2023/05/24 05:05:52;;;;;;;17.93;3.87;;;11.30;99.90;;;;;;5095790;28;20282;-70
2023/05/24 05:08:19;;;;;;;14.97;3.77;;;11.30;99.90;;;;;;5113349;28;20116;-69
2023/05/24 05:10:45;;;;;;;16.60;4.53;;;11.30;99.90;;;;;;5095848;28;20055;-69
2023/05/24 05:13:11;;;;;;;15.90;4.53;;;11.30;99.90;;;;;;5095318;28;20277;-70
2023/05/24 05:15:36;;;;;;;18.03;4.63;;;11.30;99.90;;;;;;5078091;28;20057;-69
2023/05/24 05:18:02;;;;;;;16.60;4.40;;;11.40;99.90;;;;;;5072709;28;20278;-69
2023/05/24 05:20:28;;;;;;;17.70;3.97;;;11.40;99.90;;;;;;5072896;28;20036;-69
2023/05/24 05:22:54;;;;;;;19.90;4.57;;;11.30;99.90;;;;;;5072869;28;20048;-70
2023/05/24 05:25:20;;;;;;;20.63;4.37;;;11.40;99.90;;;;;;5072405;28;20067;-70
2023/05/24 05:27:45;;;;;;;15.93;4.80;;;11.40;99.90;;;;;;5072552;28;20084;-70
2023/05/24 05:30:12;;;;;;;16.37;4.40;;;11.40;99.90;;;;;;5072483;28;20433;-70
2023/05/24 05:32:37;;;;;;;18.67;4.23;;;11.40;99.90;;;;;;5072829;28;20056;-71
2023/05/24 05:35:04;;;;;;;22.83;5.10;;;11.40;99.90;;;;;;5072360;28;20298;-70
2023/05/24 05:37:30;;;;;;;22.20;4.80;;;11.50;99.90;;;;;;5072646;28;20052;-70
2023/05/24 05:39:56;;;;;;;17.57;5.43;;;11.50;99.90;;;;;;5072880;28;20286;-70
2023/05/24 05:42:22;;;;;;;23.37;5.27;;;11.50;99.90;;;;;;5072457;28;20131;-70
2023/05/24 05:44:47;;;;;;;17.63;5.20;;;11.50;99.90;;;;;;5072710;28;20037;-70
2023/05/24 05:47:13;;;;;;;20.87;4.57;;;11.60;99.90;;;;;;5071256;28;20145;-70
2023/05/24 05:49:39;;;;;;;15.30;4.93;;;11.60;99.90;;;;;;5072495;28;20036;-70
2023/05/24 05:52:04;;;;;;;17.80;4.80;;;11.60;99.90;;;;;;5072510;28;20105;-70
2023/05/24 05:54:30;;;;;;;19.40;5.57;;;11.70;99.90;;;;;;5071887;28;20203;-69
2023/05/24 05:56:56;;;;;;;20.80;3.83;;;11.70;99.90;;;;;;5072715;28;20036;-70
2023/05/24 05:59:22;;;;;;;25.27;4.87;;;11.70;99.90;;;;;;5072443;28;20477;-70
2023/05/24 06:01:48;;;;;;;15.97;3.80;;;11.80;99.90;;;;;;5072583;28;20044;-69
2023/05/24 06:04:15;;;;;;;25.70;5.20;;;11.80;99.90;;;;;;5071214;28;20060;-70
2023/05/24 06:06:40;;;;;;;16.77;4.57;;;11.90;99.90;;;;;;5072404;28;20365;-69
2023/05/24 06:09:07;;;;;;;21.53;5.17;;;12.00;99.90;;;;;;5071409;28;20695;-70
2023/05/24 06:11:32;;;;;;;18.27;4.37;;;12.00;99.90;;;;;;5071532;28;20095;-69
2023/05/24 06:13:58;;;;;;;17.30;4.83;;;12.10;99.90;;;;;;5071358;28;20314;-69
2023/05/24 06:16:24;;;;;;;21.73;4.10;;;12.10;99.90;;;;;;5081719;28;20138;-69
2023/05/24 06:18:50;;;;;;;17.47;4.27;;;12.20;99.90;;;;;;5116862;28;20051;-70
2023/05/24 06:21:16;;;;;;;18.33;4.73;;;12.20;99.90;;;;;;5116526;28;20040;-70
2023/05/24 06:23:42;;;;;;;18.27;4.07;;;12.30;99.90;;;;;;5099000;28;20062;-70
2023/05/24 06:26:10;;;;;;;18.03;4.20;;;12.30;99.90;;;;;;5116732;28;20289;-70
2023/05/24 06:28:36;;;;;;;21.87;4.63;;;12.30;99.90;;;;;;5098723;28;20122;-70
2023/05/24 06:31:03;;;;;;;18.17;3.77;;;12.30;99.90;;;;;;5098854;28;20420;-70
2023/05/24 06:33:31;;;;;;;19.30;4.23;;;12.30;99.90;;;;;;5116351;28;20048;-70
2023/05/24 06:35:57;;;;;;;21.97;4.03;;;12.30;99.90;;;;;;5116531;28;20300;-69
2023/05/24 06:38:23;;;;;;;23.33;6.40;;;12.30;99.90;;;;;;5098351;28;20284;-69
2023/05/24 06:40:49;;;;;;;18.40;5.67;;;12.30;99.90;;;;;;5117037;28;20270;-69
2023/05/24 06:43:15;;;;;;;20.03;3.80;;;12.40;99.90;;;;;;5116300;28;20179;-70
2023/05/24 06:45:41;;;;;;;16.60;4.27;;;12.40;99.90;;;;;;5098444;28;20266;-70
2023/05/24 06:48:06;;;;;;;14.20;4.00;;;12.50;99.90;;;;;;5116139;28;20039;-70
2023/05/24 06:50:32;;;;;;;14.97;3.80;;;12.60;99.90;;;;;;5098316;28;20078;-70
2023/05/24 06:52:58;;;;;;;17.47;3.97;;;13.10;99.90;;;;;;5116511;28;20079;-70
2023/05/24 06:55:24;;;;;;;25.23;5.60;;;14.60;99.90;;;;;;5116090;28;20096;-70
2023/05/24 06:57:49;;;;;;;19.63;3.50;;;16.00;99.90;;;;;;5098265;28;20043;-70
2023/05/24 07:00:16;;;;;;;16.63;4.23;;;16.50;99.90;;;;;;5116011;28;20157;-70
2023/05/24 07:02:42;;;;;;;15.07;4.00;;;16.10;99.90;;;;;;5098090;28;20047;-70
2023/05/24 07:05:11;;;;;;;19.30;4.10;;;15.70;99.90;;;;;;5116031;28;20337;-71
2023/05/24 07:07:38;;;;;;;16.03;4.00;;;15.20;99.90;;;;;;5081853;28;20043;-70
2023/05/24 07:10:09;;;;;;;17.17;4.47;;;14.90;99.90;;;;;;5116117;28;20285;-70
2023/05/24 07:12:35;;;;;;;12.90;4.63;;;14.70;99.90;;;;;;5116274;28;20622;-70
2023/05/24 07:15:02;;;;;;;14.30;3.80;;;14.50;99.90;;;;;;5094263;28;20305;-69
2023/05/24 07:17:28;;;;;;;21.43;4.87;;;14.50;99.90;;;;;;5084389;28;21298;-69
2023/05/24 07:19:53;;;;;;;19.93;4.20;;;14.40;99.90;;;;;;5094597;28;20329;-70
2023/05/24 07:22:19;;;;;;;15.20;3.73;;;14.30;99.90;;;;;;5095371;28;20051;-70
2023/05/24 07:24:45;;;;;;;13.93;4.20;;;14.40;99.90;;;;;;5094239;28;20039;-71
2023/05/24 07:27:10;;;;;;;8.83;3.17;;;14.40;99.90;;;;;;5092637;28;20040;-71
2023/05/24 07:29:36;;;;;;;13.53;3.40;;;14.70;99.90;;;;;;5095234;28;20051;-71
2023/05/24 07:32:02;;;;;;;16.13;3.73;;;14.80;99.90;;;;;;5095137;28;20052;-71
2023/05/24 07:34:30;;;;;;;15.23;3.73;;;14.80;99.90;;;;;;5095040;28;20122;-72
2023/05/24 07:36:57;;;;;;;11.13;3.37;;;14.70;99.90;;;;;;5095283;28;20277;-72
2023/05/24 07:39:24;;;;;;;18.37;4.00;;;14.70;99.90;;;;;;5094953;28;20653;-72
2023/05/24 07:41:50;;;;;;;16.77;3.67;;;14.70;99.90;;;;;;5095084;28;20297;-72
2023/05/24 07:44:16;;;;;;;15.80;3.63;;;14.70;99.90;;;;;;5093818;28;20369;-72
2023/05/24 07:46:41;;;;;;;13.67;3.60;;;14.60;99.90;;;;;;5093963;28;20048;-73
2023/05/24 07:49:07;;;;;;;10.83;3.40;;;14.60;99.90;;;;;;5094037;28;20055;-73
2023/05/24 07:51:33;;;;;;;16.90;3.97;;;14.50;99.90;;;;;;5094792;28;20050;-72
2023/05/24 07:53:59;;;;;;;20.40;3.73;;;14.40;99.90;;;;;;5093747;28;20446;-72
2023/05/24 07:56:25;;;;;;;10.37;3.63;;;14.30;99.90;;;;;;5093373;28;20048;-72
2023/05/24 07:58:51;;;;;;;11.77;3.40;;;14.30;99.90;;;;;;5094749;28;20078;-72
2023/05/24 08:01:19;;;;;;;10.60;2.93;;;14.30;99.90;;;;;;5094225;28;20044;-73
2023/05/24 08:03:46;;;;;;;14.23;4.27;;;14.30;99.90;;;;;;5094691;28;20293;-72
2023/05/24 08:06:12;;;;;;;11.43;3.20;;;14.40;99.90;;;;;;5094654;28;20286;-72
2023/05/24 08:08:39;;;;;;;15.50;4.03;;;14.40;99.90;;;;;;5093112;28;20632;-72
2023/05/24 08:11:06;;;;;;;15.07;3.57;;;14.30;99.90;;;;;;5094584;28;20274;-72
2023/05/24 08:13:33;;;;;;;12.97;3.23;;;14.30;99.90;;;;;;5094165;28;20278;-72
2023/05/24 08:15:59;;;;;;;13.33;2.80;;;14.20;99.90;;;;;;5093139;28;20302;-72
2023/05/24 08:18:24;;;;;;;12.93;3.13;;;14.20;99.90;;;;;;5076099;28;20346;-72
2023/05/24 08:20:50;;;;;;;13.03;3.43;;;14.10;99.90;;;;;;5094592;28;20055;-72
2023/05/24 08:23:16;;;;;;;14.50;3.67;;;14.10;99.90;;;;;;5093992;28;20044;-73
2023/05/24 08:25:42;;;;;;;10.37;3.07;;;14.00;99.90;;;;;;5093015;28;20686;-72
2023/05/24 08:28:09;;;;;;;15.00;3.43;;;14.00;99.90;;;;;;5092841;28;20090;-71
2023/05/24 08:30:35;;;;;;;11.63;3.13;;;14.00;99.90;;;;;;5093062;28;20480;-71
2023/05/24 08:33:01;;;;;;;13.13;3.10;;;14.00;99.90;;;;;;5094451;28;20590;-71
2023/05/24 08:35:27;;;;;;;13.97;3.80;;;14.00;99.90;;;;;;5092501;28;20286;-71
2023/05/24 08:37:53;;;;;;;15.13;3.33;;;13.90;99.90;;;;;;5093585;28;20040;-71
2023/05/24 08:40:19;;;;;;;13.10;3.27;;;13.90;99.90;;;;;;5093670;28;20044;-72
2023/05/24 08:42:45;;;;;;;14.40;3.80;;;13.80;99.90;;;;;;5093966;28;20281;-72
2023/05/24 08:45:12;;;;;;;16.00;3.13;;;13.70;99.90;;;;;;5093783;28;20270;-69
2023/05/24 08:47:39;;;;;;;13.97;3.80;;;13.70;99.90;;;;;;5093604;28;20052;-72
2023/05/24 08:50:05;;;;;;;13.90;4.03;;;13.80;99.90;;;;;;5075962;28;20343;-72
2023/05/24 08:52:31;;;;;;;16.90;3.90;;;13.80;99.90;;;;;;5093372;28;20412;-71
2023/05/24 08:54:58;;;;;;;15.57;4.57;;;13.80;99.90;;;;;;5093504;28;20297;-72
2023/05/24 08:57:26;;;;;;;16.90;4.03;;;13.80;99.90;;;;;;5087242;28;20302;-71
2023/05/24 08:59:54;;;;;;;15.90;3.87;;;13.80;99.90;;;;;;5073872;28;20416;-71
2023/05/24 09:02:21;;;;;;;15.67;4.23;;;13.80;99.90;;;;;;5073232;28;20318;-73
2023/05/24 09:04:48;;;;;;;13.70;3.43;;;13.80;99.90;;;;;;5072364;28;20296;-70
2023/05/24 09:07:18;;;;;;;11.93;3.13;;;13.70;99.90;;;;;;5073398;28;20353;-71
2023/05/24 09:09:49;;;;;;;13.07;3.40;;;13.70;99.90;;;;;;5063927;28;20287;-71
2023/05/24 09:12:20;;;;;;;14.53;3.43;;;13.80;99.90;;;;;;5044557;28;20845;-71
2023/05/24 09:14:46;;;;;;;12.10;4.03;;;13.80;99.90;;;;;;5062700;28;20393;-72
2023/05/24 09:17:16;;;;;;;14.73;3.73;;;13.90;99.90;;;;;;5072728;28;20295;-71
2023/05/24 09:19:45;;;;;;;16.40;3.13;;;13.90;99.90;;;;;;5071579;28;20295;-71
2023/05/24 09:22:18;;;;;;;15.47;3.37;;;13.90;99.90;;;;;;5072868;28;20286;-70
2023/05/24 09:24:47;;;;;;;12.17;2.93;;;13.90;99.90;;;;;;5055101;28;20682;-71
2023/05/24 09:27:16;;;;;;;12.07;2.87;;;13.90;99.90;;;;;;5055288;28;20325;-70
2023/05/24 09:29:45;;;;;;;10.43;3.13;;;13.90;99.90;;;;;;5071011;28;20615;-70
2023/05/24 09:32:13;;;;;;;13.90;3.37;;;13.90;99.90;;;;;;5051940;28;20792;-71
2023/05/24 09:34:43;;;;;;;9.70;2.97;;;13.90;99.90;;;;;;5070810;28;20302;-71
2023/05/24 09:37:15;;;;;;;13.03;3.43;;;13.90;99.90;;;;;;5071039;28;20294;-70
2023/05/24 09:39:46;;;;;;;15.97;4.67;;;14.00;99.90;;;;;;5072054;28;20681;-71
2023/05/24 09:42:29;;;;;;;12.37;3.30;;;14.00;99.90;;;;;;5068638;28;20275;-71
2023/05/24 09:45:01;;;;;;;10.87;3.67;;;14.10;99.90;;;;;;5052376;28;20290;-71
2023/05/24 09:47:31;;;;;;;11.30;3.60;;;14.00;99.90;;;;;;5071727;28;20305;-72
2023/05/24 09:49:58;;;;;;;15.80;3.57;;;14.10;99.90;;;;;;5070617;28;20286;-71
2023/05/24 09:52:24;;;;;;;11.77;3.37;;;14.20;99.90;;;;;;5070598;28;20287;-71
2023/05/24 09:54:50;;;;;;;11.60;3.10;;;14.20;99.90;;;;;;5070566;28;20306;-72
2023/05/24 09:57:16;;;;;;;12.93;2.90;;;14.30;99.90;;;;;;5072060;28;20041;-72
2023/05/24 09:59:43;;;;;;;12.43;3.50;;;14.40;99.90;;;;;;5070869;28;20623;-71
2023/05/24 10:02:10;;;;;;;15.77;3.50;;;14.50;99.90;;;;;;5070809;28;20045;-75
2023/05/24 10:04:40;;;;;;;13.90;3.60;;;14.50;99.90;;;;;;5071478;28;20279;-71
2023/05/24 10:07:06;;;;;;;13.10;3.30;;;14.60;99.90;;;;;;5072177;28;20286;-71
2023/05/24 10:09:33;;;;;;;16.13;4.50;;;14.80;99.90;;;;;;5071814;28;20278;-72
2023/05/24 10:12:04;;;;;;;19.00;4.60;;;15.00;99.90;;;;;;5069367;28;20279;-72
2023/05/24 10:14:37;;;;;;;10.60;3.40;;;15.20;99.90;;;;;;5080441;28;20369;-72
2023/05/24 10:17:04;;;;;;;13.00;4.03;;;15.40;99.90;;;;;;5110598;28;20277;-71
2023/05/24 10:19:32;;;;;;;16.37;4.00;;;15.60;99.90;;;;;;5112168;28;20285;-72
2023/05/24 10:21:58;;;;;;;14.40;4.07;;;15.60;99.90;;;;;;5112482;28;20278;-71
2023/05/24 10:24:28;;;;;;;13.73;3.63;;;15.80;99.90;;;;;;5094491;28;20281;-70
2023/05/24 10:26:56;;;;;;;11.60;3.83;;;15.90;99.90;;;;;;5112317;28;20044;-70
2023/05/24 10:29:33;;;;;;;11.07;3.13;;;15.90;99.90;;;;;;5094905;28;20301;-71
2023/05/24 10:32:00;;;;;;;22.10;4.63;;;16.00;99.90;;;;;;5113014;28;20453;-70
2023/05/24 10:34:26;;;;;;;12.17;3.40;;;16.00;99.90;;;;;;5094262;28;20533;-71
2023/05/24 10:36:52;;;;;;;9.63;2.83;;;15.80;99.90;;;;;;5112546;28;20086;-71
2023/05/24 10:39:21;;;;;;;8.80;3.20;;;15.70;99.90;;;;;;5112938;28;20372;-72
2023/05/24 10:41:47;;;;;;;17.27;3.40;;;15.70;99.90;;;;;;5094083;28;20781;-73
2023/05/24 10:44:19;;;;;;;14.03;2.83;;;15.70;99.90;;;;;;5112872;28;20054;-73
2023/05/24 10:47:08;;;;;;;11.20;3.57;;;15.80;99.90;;;;;;5112624;28;20043;-73
2023/05/24 10:49:35;;;;;;;11.10;3.27;;;15.80;99.90;;;;;;5112329;28;20510;-73
2023/05/24 10:52:05;;;;;;;11.43;3.27;;;15.80;99.90;;;;;;5112650;28;20055;-73
2023/05/24 10:54:31;;;;;;;13.33;3.60;;;15.90;99.90;;;;;;5094543;28;20042;-73
2023/05/24 10:57:03;;;;;;;10.10;3.20;;;15.90;99.90;;;;;;5112472;28;20039;-73
2023/05/24 10:59:38;;;;;;;11.27;2.90;;;16.00;99.90;;;;;;5112879;28;20141;-70
2023/05/24 11:02:11;;;;;;;10.80;2.83;;;16.20;99.90;;;;;;5115615;28;20487;-77
2023/05/24 11:04:39;;;;;;;10.33;3.10;;;16.40;99.90;;;;;;5081067;28;20048;-69
2023/05/24 11:07:09;;;;;;;10.73;3.10;;;16.40;99.90;;;;;;5098207;28;20105;-69
2023/05/24 11:09:44;;;;;;;11.60;3.57;;;16.40;99.90;;;;;;5097935;28;20046;-70
2023/05/24 11:12:15;;;;;;;14.13;3.77;;;16.40;99.90;;;;;;5116325;28;20040;-69
2023/05/24 11:14:48;;;;;;;15.67;3.40;;;16.30;99.90;;;;;;5115699;28;20101;-69
2023/05/24 11:17:13;;;;;;;16.40;3.87;;;16.20;99.90;;;;;;5115914;28;20415;-70
2023/05/24 11:19:50;;;;;;;13.50;3.40;;;16.20;99.90;;;;;;5115870;28;20043;-70
2023/05/24 11:22:18;;;;;;;10.50;2.77;;;16.20;99.90;;;;;;5116040;28;20048;-70
2023/05/24 11:24:44;;;;;;;12.47;3.27;;;16.40;99.90;;;;;;5097537;28;20035;-70
2023/05/24 11:27:12;;;;;;;10.83;3.23;;;16.40;99.90;;;;;;5115776;28;20050;-70
2023/05/24 11:29:46;;;;;;;12.93;3.20;;;16.50;99.90;;;;;;5115301;28;20043;-71
2023/05/24 11:32:22;;;;;;;8.90;2.93;;;16.60;99.90;;;;;;5116018;28;20048;-69
2023/05/24 11:34:48;;;;;;;14.03;3.67;;;16.70;99.90;;;;;;5097276;28;20054;-70
2023/05/24 11:37:15;;;;;;;10.47;2.77;;;16.80;99.90;;;;;;5115465;28;20548;-70
2023/05/24 11:39:41;;;;;;;10.60;3.47;;;16.80;99.90;;;;;;5114116;28;20080;-71
2023/05/24 11:42:15;;;;;;;10.47;3.33;;;16.70;99.90;;;;;;5115464;28;20126;-71
2023/05/24 11:44:41;;;;;;;12.45;3.90;;;16.70;99.90;;;;;;5115593;28;20157;-71
2023/05/24 11:47:07;;;;;;;12.73;2.70;;;16.50;99.90;;;;;;5115642;28;20461;-71
2023/05/24 11:49:33;;;;;;;12.43;3.17;;;16.40;99.90;;;;;;5115426;28;20564;-72
2023/05/24 11:52:00;;;;;;;12.00;2.70;;;16.40;99.90;;;;;;5097053;28;20051;-71
2023/05/24 11:54:27;;;;;;;10.03;3.00;;;16.50;99.90;;;;;;5115408;28;20101;-71
2023/05/24 11:56:53;;;;;;;11.33;2.90;;;16.60;99.90;;;;;;5115035;28;20055;-71
2023/05/24 11:59:24;;;;;;;14.53;3.73;;;16.70;99.90;;;;;;5097477;28;20047;-71
2023/05/24 12:02:04;;;;;;;11.90;3.40;;;16.70;99.90;;;;;;5097184;28;20036;-71
2023/05/24 12:04:30;;;;;;;12.87;3.13;;;16.70;99.90;;;;;;5097551;28;20116;-71
2023/05/24 12:06:57;;;;;;;10.80;2.97;;;16.50;99.90;;;;;;5114987;28;20036;-71
2023/05/24 12:09:24;;;;;;;8.60;2.70;;;16.50;99.90;;;;;;5115010;28;20112;-71
2023/05/24 12:11:50;;;;;;;9.07;2.73;;;16.50;99.90;;;;;;5079841;28;20051;-71
2023/05/24 12:14:26;;;;;;;12.33;3.27;;;16.40;99.90;;;;;;5114480;28;20044;-71
2023/05/24 12:16:57;;;;;;;10.40;3.17;;;16.50;99.90;;;;;;5114906;28;20057;-71
2023/05/24 12:19:33;;;;;;;10.93;2.80;;;16.40;99.90;;;;;;5115081;28;20052;-71
2023/05/24 12:21:59;;;;;;;8.93;3.30;;;16.40;99.90;;;;;;5096298;28;20089;-71
2023/05/24 12:24:26;;;;;;;11.77;3.27;;;16.50;99.90;;;;;;5114993;28;20086;-71
2023/05/24 12:27:00;;;;;;;9.53;3.43;;;16.60;99.90;;;;;;5114662;28;20123;-71
2023/05/24 12:29:26;;;;;;;10.15;3.40;;;16.60;99.30;;;;;;5114845;28;20040;-71
2023/05/24 12:31:52;;;;;;;8.03;2.70;;;16.50;99.90;;;;;;5114466;28;20046;-70
2023/05/24 12:34:18;;;;;;;9.40;3.00;;;16.60;99.90;;;;;;5096405;28;20055;-70
2023/05/24 12:36:46;;;;;;;9.27;3.00;;;16.60;99.90;;;;;;5114445;28;20090;-71
2023/05/24 12:39:34;;;;;;;10.37;2.73;;;16.60;99.90;;;;;;5114548;28;20518;-70